CYNA

Natashquan Airport

Natashquan, Quebec, Canada
METAR CYNA 160000Z AUTO 29012G17KT 9SM CLR M02/M05 A2981 RMK SLP098
Observed Flight Rules
Dec-16 @ 00:00 UTC (an hour ago) Visual Flight Rules
Wind Visibility Clouds
290° at 12 knots
 Gusting to 17 knots
9 miles
  • Clear skies
Temperatures Readings
Current -2°C / 28°F
Dewpoint -5°C / 23°F
Humidity 80%
Altimeter 29.81" Hg
Pressure 1009.8 hPa
Elevation 11
METAR CYNA 160000Z AUTO 29012G17KT 9SM CLR M02/M05 A2981 RMK SLP098
Observed Flight Rules
Dec-16 @ 00:00 UTC
(an hour ago)
VFR
Wind Visibility
290° at 12 knots
 Gusting to 17 knots
9 miles
Clouds
  • Clear skies
Temperature Dewpoint
-2°C / 28°F -5°C / 23°F
Humidity Altimeter Pressure
80% 29.81" Hg 1009.8 hPa